Time;durP1;ratioP1;P1;durP2;ratioP2;P2;SDS_P1;SDS_P2;PMS_P1;PMS_P2;Temp;Humidity;BMP_temperature;BMP_pressure;BME280_temperature;BME280_humidity;BME280_pressure;Samples;Min_cycle;Max_cycle;Signal;HPM_P1;HPM_P2
2021/01/19 00:03:04;;;;;;;112.40;53.70;;;;;;;-14.64;87.63;100718.48;3502331;84;32447;-75
2021/01/19 00:08:08;;;;;;;117.15;54.03;;;;;;;-14.74;88.57;100705.92;3499699;84;32918;-74
2021/01/19 00:13:09;;;;;;;83.23;43.27;;;;;;;-14.68;89.15;100692.24;3500292;84;25731;-74
2021/01/19 00:18:10;;;;;;;114.40;54.00;;;;;;;-14.65;88.62;100692.39;3499912;84;25873;-74
2021/01/19 00:23:14;;;;;;;110.80;53.90;;;;;;;-14.59;88.73;100682.55;3499674;84;26254;-74
2021/01/19 00:28:16;;;;;;;112.33;52.57;;;;;;;-14.58;89.08;100692.01;3499752;84;27718;-74
2021/01/19 00:33:17;;;;;;;105.77;53.73;;;;;;;-14.72;88.48;100678.73;3518368;83;26048;-68
2021/01/19 00:38:18;;;;;;;111.70;54.10;;;;;;;-14.70;88.47;100682.69;3526212;84;25773;-72
2021/01/19 00:43:19;;;;;;;109.73;53.60;;;;;;;-14.73;89.05;100673.14;3525839;83;25802;-73
2021/01/19 00:48:20;;;;;;;112.97;56.43;;;;;;;-14.81;88.86;100673.02;3525619;83;26227;-74
2021/01/19 00:53:21;;;;;;;120.93;55.27;;;;;;;-14.80;88.65;100674.80;3525587;83;26285;-74
2021/01/19 00:58:23;;;;;;;116.97;56.57;;;;;;;-14.67;88.84;100672.27;3525921;83;25773;-74
2021/01/19 01:03:24;;;;;;;120.53;57.27;;;;;;;-14.64;88.88;100667.30;3525625;84;25756;-74
2021/01/19 01:08:25;;;;;;;127.87;60.23;;;;;;;-14.54;88.31;100661.50;3525619;83;25856;-74
2021/01/19 01:13:26;;;;;;;122.37;56.53;;;;;;;-14.50;87.57;100650.66;3525375;83;26317;-74
2021/01/19 01:18:30;;;;;;;108.13;49.57;;;;;;;-14.59;87.33;100637.75;3525348;83;32608;-74
2021/01/19 01:23:30;;;;;;;126.43;54.77;;;;;;;-14.70;88.02;100645.17;3525354;84;25947;-73
2021/01/19 01:28:32;;;;;;;107.93;53.50;;;;;;;-14.58;87.91;100643.77;3525370;83;25765;-74
2021/01/19 01:33:33;;;;;;;111.20;51.93;;;;;;;-14.47;88.66;100639.34;3525317;83;25745;-73
2021/01/19 01:38:35;;;;;;;117.40;53.97;;;;;;;-14.42;88.88;100621.31;3525544;83;25840;-74
2021/01/19 01:43:36;;;;;;;113.87;54.43;;;;;;;-14.46;88.35;100609.98;3525644;84;30630;-74
2021/01/19 01:48:40;;;;;;;106.13;50.03;;;;;;;-14.45;89.14;100595.12;3525647;84;25783;-74
2021/01/19 01:53:42;;;;;;;107.60;50.03;;;;;;;-14.46;89.45;100589.91;3525338;84;27193;-73
2021/01/19 01:58:44;;;;;;;99.30;51.20;;;;;;;-14.45;91.58;100581.45;3525449;84;27663;-74
2021/01/19 02:03:46;;;;;;;99.03;49.20;;;;;;;-14.32;92.09;100573.74;3501175;84;28689;-73
2021/01/19 02:09:05;;;;;;;109.37;50.93;;;;;;;-14.12;91.66;100571.53;3525358;83;31269;-74
2021/01/19 02:14:29;;;;;;;98.57;49.17;;;;;;;-13.97;91.14;100572.85;3525629;84;30587;-74
2021/01/19 02:20:08;;;;;;;98.90;48.70;;;;;;;-13.96;90.70;100572.06;3525491;83;28207;-75
2021/01/19 02:25:34;;;;;;;101.77;49.67;;;;;;;-13.92;92.28;100579.17;3417893;84;28232;-74
2021/01/19 02:31:22;;;;;;;105.10;48.53;;;;;;;-13.70;92.21;100567.25;3525505;83;29140;-69
2021/01/19 02:36:52;;;;;;;99.70;47.13;;;;;;;-13.61;92.15;100564.34;3521525;84;29203;-74
2021/01/19 02:41:54;;;;;;;98.67;49.73;;;;;;;-13.62;93.03;100555.78;3521443;84;29131;-73
2021/01/19 02:46:59;;;;;;;98.20;47.90;;;;;;;-13.56;92.76;100553.08;3521489;84;32026;-74
2021/01/19 02:52:01;;;;;;;100.02;48.28;;;;;;;-13.55;93.25;100549.31;3521346;84;25734;-74
2021/01/19 02:57:16;;;;;;;97.23;49.33;;;;;;;-13.43;93.31;100541.47;3521236;84;31140;-74
2021/01/19 03:02:23;;;;;;;97.83;47.33;;;;;;;-13.36;92.52;100533.30;3520366;84;29162;-74
2021/01/19 03:07:27;;;;;;;104.73;51.37;;;;;;;-13.35;93.12;100540.20;3521453;81;33091;-69
2021/01/19 03:12:33;;;;;;;104.78;49.03;;;;;;;-13.31;93.25;100524.18;3521558;84;25853;-73
2021/01/19 03:17:35;;;;;;;;;;;;;;;-13.34;92.84;100525.69;3523840;84;25855;-74
2021/01/19 03:22:36;;;;;;;106.33;50.67;;;;;;;-13.36;93.36;100512.78;3521519;84;35391;-73
2021/01/19 03:27:37;;;;;;;106.30;50.87;;;;;;;-13.32;93.55;100517.28;3521225;84;25777;-73
2021/01/19 03:32:38;;;;;;;108.10;51.23;;;;;;;-13.23;94.01;100498.09;3522659;83;25818;-73
2021/01/19 03:37:39;;;;;;;108.35;52.00;;;;;;;-13.14;93.38;100496.05;3525352;83;25804;-73
2021/01/19 03:42:40;;;;;;;117.37;55.50;;;;;;;-13.12;92.67;100497.03;3525405;84;25934;-68
2021/01/19 03:47:42;;;;;;;99.10;46.63;;;;;;;-13.13;93.29;100487.56;3525613;84;25731;-68
2021/01/19 03:52:43;;;;;;;111.47;54.50;;;;;;;-13.06;92.57;100473.00;3525163;83;26326;-74
2021/01/19 03:57:44;;;;;;;107.23;53.20;;;;;;;-12.94;93.52;100480.88;3525496;83;25774;-72
2021/01/19 04:02:45;;;;;;;109.55;53.63;;;;;;;-12.91;93.07;100469.11;3525459;84;32477;-73
2021/01/19 04:07:46;;;;;;;114.37;50.93;;;;;;;-12.92;93.46;100467.75;3525288;83;32512;-73
2021/01/19 04:12:47;;;;;;;106.43;52.43;;;;;;;-13.04;94.00;100454.73;3525128;83;32574;-74
2021/01/19 04:17:48;;;;;;;117.27;55.57;;;;;;;-13.01;94.79;100451.45;3525256;84;32553;-73
2021/01/19 04:22:49;;;;;;;105.40;54.10;;;;;;;-12.95;94.86;100447.02;3525630;84;32635;-74
2021/01/19 04:27:50;;;;;;;108.47;53.20;;;;;;;-12.81;94.88;100430.70;3525429;83;32458;-73
2021/01/19 04:32:51;;;;;;;112.63;52.77;;;;;;;-12.76;95.03;100439.56;3508941;83;32465;-72
2021/01/19 04:37:53;;;;;;;105.83;52.27;;;;;;;-12.64;95.14;100430.73;3475119;84;32620;-74
2021/01/19 04:42:54;;;;;;;114.97;54.97;;;;;;;-12.77;95.84;100428.80;3475275;84;32976;-74
2021/01/19 04:47:56;;;;;;;105.40;53.07;;;;;;;-12.62;95.45;100426.58;3471595;84;27856;-69
2021/01/19 04:53:01;;;;;;;105.40;52.57;;;;;;;-12.63;96.31;100422.23;3471781;84;29307;-74
2021/01/19 04:58:06;;;;;;;;;;;;;;;-12.68;96.64;100417.72;3473169;83;34651;-72
2021/01/19 05:03:21;;;;;;;99.13;46.70;;;;;;;-12.50;97.11;100425.94;3473724;83;30719;-72
2021/01/19 05:08:29;;;;;;;119.65;54.58;;;;;;;-12.58;96.33;100418.22;3477454;84;26377;-73
2021/01/19 05:13:59;;;;;;;107.57;54.03;;;;;;;-12.53;97.37;100414.20;3478859;83;26913;-72
2021/01/19 05:19:04;;;;;;;124.53;55.50;;;;;;;-12.47;97.36;100413.24;3478604;84;27029;-71
2021/01/19 05:24:06;;;;;;;94.92;45.85;;;;;;;-12.35;96.65;100414.30;3479451;82;25853;-74
2021/01/19 05:29:08;;;;;;;108.17;49.90;;;;;;;-12.31;96.17;100426.90;3479716;84;32150;-73
2021/01/19 05:34:12;;;;;;;106.23;52.57;;;;;;;-12.43;97.39;100415.19;3502030;83;27746;-72
2021/01/19 05:39:19;;;;;;;112.00;51.47;;;;;;;-12.34;97.67;100421.20;3529561;82;27277;-72
2021/01/19 05:44:29;;;;;;;112.00;53.57;;;;;;;-12.33;98.19;100421.69;3530193;82;27824;-73
2021/01/19 05:49:38;;;;;;;108.00;54.10;;;;;;;-12.18;98.03;100403.61;3507393;82;29721;-72
2021/01/19 05:54:44;;;;;;;106.97;54.13;;;;;;;-12.14;98.43;100405.93;3481267;85;31720;-72
2021/01/19 05:59:47;;;;;;;109.77;52.73;;;;;;;-11.98;97.67;100398.62;3481438;85;29649;-72
2021/01/19 06:04:53;;;;;;;109.87;53.43;;;;;;;-11.83;97.89;100396.77;3481094;84;30735;-73
2021/01/19 06:09:55;;;;;;;107.87;52.63;;;;;;;-11.79;97.55;100407.70;3481478;84;29703;-71
2021/01/19 06:14:56;;;;;;;109.53;54.17;;;;;;;-11.81;97.73;100418.31;3481290;84;25879;-74
2021/01/19 06:20:00;;;;;;;98.50;50.13;;;;;;;-11.72;97.50;100408.49;3482059;85;25856;-73
2021/01/19 06:25:04;;;;;;;98.20;52.97;;;;;;;-11.71;98.41;100394.83;3481695;85;25828;-73
2021/01/19 06:30:12;;;;;;;107.23;52.77;;;;;;;-11.57;98.27;100388.19;3482229;83;25758;-73
2021/01/19 06:35:17;;;;;;;111.87;52.53;;;;;;;-11.51;98.22;100388.49;3511739;84;32698;-72
2021/01/19 06:40:22;;;;;;;107.60;51.35;;;;;;;-11.51;98.18;100384.62;3527855;84;26345;-73
2021/01/19 06:45:25;;;;;;;91.08;40.40;;;;;;;-11.51;97.99;100371.77;3527774;84;25962;-72
2021/01/19 06:50:30;;;;;;;103.63;52.00;;;;;;;-11.52;98.75;100370.00;3526907;84;29943;-73
2021/01/19 06:55:53;;;;;;;;;;;;;;;-11.62;99.24;100365.20;3529755;84;25952;-73
2021/01/19 07:01:00;;;;;;;77.87;40.53;;;;;;;-11.63;99.74;100367.32;3512139;84;32553;-73
2021/01/19 07:06:07;;;;;;;111.10;53.13;;;;;;;-11.58;100.00;100364.56;3527678;84;25881;-73
2021/01/19 07:11:35;;;;;;;105.10;52.13;;;;;;;-11.54;100.00;100359.64;3527511;84;33197;-73
2021/01/19 07:16:47;;;;;;;110.10;53.80;;;;;;;-11.47;100.00;100362.09;3525553;83;30635;-73
2021/01/19 07:22:05;;;;;;;105.67;52.37;;;;;;;-11.38;100.00;100378.36;3526436;84;29913;-72
2021/01/19 07:27:10;;;;;;;110.20;53.60;;;;;;;-11.33;100.00;100383.73;3527591;84;30661;-73
2021/01/19 07:32:23;;;;;;;105.20;50.80;;;;;;;-11.25;100.00;100375.59;3527609;84;33094;-73
2021/01/19 07:37:33;;;;;;;109.93;52.83;;;;;;;-11.18;100.00;100374.18;3527224;84;32786;-73
2021/01/19 07:42:35;;;;;;;112.90;52.10;;;;;;;-11.16;100.00;100366.13;3527458;84;31961;-73
2021/01/19 07:47:44;;;;;;;107.13;53.53;;;;;;;-11.08;99.93;100359.66;3527215;84;31266;-73
2021/01/19 07:52:48;;;;;;;105.00;52.07;;;;;;;-10.78;99.91;100362.27;3527293;84;30614;-74
2021/01/19 07:57:53;;;;;;;111.23;55.33;;;;;;;-10.70;98.66;100356.17;3527419;84;31719;-73
2021/01/19 08:03:05;;;;;;;111.00;54.85;;;;;;;-10.63;97.85;100350.48;3527475;84;25761;-72
2021/01/19 08:08:14;;;;;;;119.30;56.63;;;;;;;-10.62;98.12;100361.27;3527648;84;33631;-72
2021/01/19 08:13:18;;;;;;;114.77;53.23;;;;;;;-10.63;98.57;100354.34;3527447;84;32576;-73
2021/01/19 08:18:20;;;;;;;111.10;52.97;;;;;;;-10.48;97.94;100345.14;3527240;83;32948;-72
2021/01/19 08:23:24;;;;;;;118.33;55.60;;;;;;;-10.44;97.78;100350.50;3527232;84;32378;-73
2021/01/19 08:28:24;;;;;;;113.70;54.87;;;;;;;-10.37;97.66;100346.48;3527098;84;32434;-72
2021/01/19 08:33:26;;;;;;;115.43;55.87;;;;;;;-10.23;97.59;100343.19;3529438;83;26346;-73
2021/01/19 08:38:30;;;;;;;115.73;54.07;;;;;;;-10.28;97.75;100338.22;3540277;83;31653;-73
2021/01/19 08:43:32;;;;;;;112.70;56.13;;;;;;;-10.18;98.55;100339.11;3540768;83;31813;-73
2021/01/19 08:48:34;;;;;;;118.47;58.70;;;;;;;-10.03;97.83;100341.86;3540754;83;32422;-72
2021/01/19 08:53:36;;;;;;;113.40;56.47;;;;;;;-9.85;98.11;100342.63;3589618;81;178414;-73
2021/01/19 08:58:38;;;;;;;108.00;56.43;;;;;;;-9.84;97.89;100340.52;3603454;82;25783;-69
2021/01/19 09:03:39;;;;;;;116.27;56.03;;;;;;;-9.79;97.98;100335.13;3603422;82;31898;-72
2021/01/19 09:08:43;;;;;;;115.63;60.80;;;;;;;-9.71;98.03;100324.25;3603517;81;32035;-73
2021/01/19 09:13:44;;;;;;;120.23;58.60;;;;;;;-9.68;98.35;100333.41;3603601;82;32464;-73
2021/01/19 09:18:55;;;;;;;111.47;57.27;;;;;;;-9.60;98.67;100335.91;3603192;82;32790;-74
2021/01/19 09:23:57;;;;;;;115.13;58.80;;;;;;;-9.59;98.15;100337.67;3566991;81;158065;-73
2021/01/19 09:29:03;;;;;;;113.90;57.37;;;;;;;-9.54;98.32;100334.86;3537424;83;32265;-73
2021/01/19 09:34:04;;;;;;;109.23;57.17;;;;;;;-9.27;98.40;100322.98;3534808;83;32080;-72
2021/01/19 09:39:06;;;;;;;115.43;58.57;;;;;;;-9.35;97.92;100315.82;3504875;84;25831;-70
2021/01/19 09:44:07;;;;;;;115.40;60.20;;;;;;;-9.26;98.73;100328.20;3527083;84;26224;-73
2021/01/19 09:49:09;;;;;;;116.33;60.43;;;;;;;-9.22;98.90;100319.73;3527325;84;26284;-73
2021/01/19 09:54:10;;;;;;;121.37;61.23;;;;;;;-9.21;99.43;100316.34;3527271;84;32503;-74
2021/01/19 09:59:12;;;;;;;128.17;62.97;;;;;;;-9.08;99.41;100301.30;3527768;84;26344;-73
2021/01/19 10:04:19;;;;;;;127.50;63.07;;;;;;;-9.05;99.80;100294.98;3527382;84;30629;-72
2021/01/19 10:09:23;;;;;;;119.43;62.70;;;;;;;-8.96;99.47;100296.62;3527340;84;32681;-74
2021/01/19 10:14:37;;;;;;;112.37;59.03;;;;;;;-9.06;99.27;100284.17;3526359;84;31622;-72
2021/01/19 10:19:38;;;;;;;124.90;64.40;;;;;;;-8.95;98.72;100273.84;3527369;84;30675;-74
2021/01/19 10:24:49;;;;;;;124.90;63.13;;;;;;;-8.93;99.13;100267.44;3527251;83;26261;-70
2021/01/19 10:29:52;;;;;;;126.93;66.20;;;;;;;-8.76;99.42;100257.70;3573536;81;153428;-75
2021/01/19 10:34:53;;;;;;;119.93;65.37;;;;;;;-8.63;99.40;100256.45;3659403;81;32495;-73
2021/01/19 10:39:59;;;;;;;116.57;63.10;;;;;;;-8.54;99.09;100251.19;3662356;81;25755;-74
2021/01/19 10:45:04;;;;;;;128.60;63.87;;;;;;;-8.45;98.70;100244.13;3661978;81;32446;-73
2021/01/19 10:50:12;;;;;;;;;;;;;;;-8.39;97.90;100232.69;3663843;81;25770;-73
2021/01/19 10:55:13;;;;;;;123.80;65.83;;;;;;;-8.41;98.99;100238.64;3661049;81;32919;-73
2021/01/19 11:00:16;;;;;;;130.03;66.10;;;;;;;-8.27;98.25;100234.82;3662169;81;25757;-73
2021/01/19 11:05:18;;;;;;;125.53;68.47;;;;;;;-8.19;98.03;100235.96;3663096;81;32911;-69
2021/01/19 11:10:25;;;;;;;129.40;64.40;;;;;;;-8.08;99.09;100230.25;3662148;81;32525;-74
2021/01/19 11:15:26;;;;;;;121.90;64.03;;;;;;;-8.06;97.79;100223.42;3662391;79;32688;-74
2021/01/19 11:20:28;;;;;;;120.33;63.40;;;;;;;-8.04;98.01;100217.47;3662459;81;25814;-73
2021/01/19 11:25:30;;;;;;;136.20;69.13;;;;;;;-8.04;98.43;100207.55;3662414;81;32404;-74
2021/01/19 11:30:31;;;;;;;132.63;69.63;;;;;;;-8.01;99.52;100198.17;3662644;81;26181;-69
2021/01/19 11:35:35;;;;;;;127.87;67.37;;;;;;;-7.97;99.61;100192.68;3660864;81;25809;-75
2021/01/19 11:40:35;;;;;;;118.60;64.33;;;;;;;-7.98;99.94;100186.14;3657408;81;30916;-74
2021/01/19 11:45:36;;;;;;;119.87;64.50;;;;;;;-7.92;100.00;100175.58;3657726;81;29740;-74
2021/01/19 11:50:38;;;;;;;127.17;70.53;;;;;;;-7.85;100.00;100176.23;3657444;81;25791;-74
2021/01/19 11:55:39;;;;;;;129.10;68.17;;;;;;;-7.71;100.00;100165.42;3657414;81;32886;-70
2021/01/19 12:00:40;;;;;;;125.63;67.63;;;;;;;-7.64;100.00;100158.30;3657524;81;25699;-69
2021/01/19 12:05:46;;;;;;;131.33;68.50;;;;;;;-7.60;100.00;100162.73;3657531;81;25809;-73
2021/01/19 12:10:47;;;;;;;116.20;65.78;;;;;;;-7.50;100.00;100159.99;3657788;81;25826;-74
2021/01/19 12:15:48;;;;;;;125.93;68.63;;;;;;;-7.52;100.00;100149.59;3658297;80;25694;-73
2021/01/19 12:20:49;;;;;;;130.07;70.23;;;;;;;-7.48;100.00;100150.56;3659376;81;25807;-73
2021/01/19 12:25:52;;;;;;;128.03;67.80;;;;;;;-7.45;100.00;100142.91;3658415;81;25746;-73
2021/01/19 12:30:54;;;;;;;131.43;68.27;;;;;;;-7.41;100.00;100137.39;3658010;81;33027;-73
2021/01/19 12:35:55;;;;;;;122.03;67.53;;;;;;;-7.44;100.00;100143.36;3657292;81;30760;-73
2021/01/19 12:40:57;;;;;;;123.20;68.97;;;;;;;-7.32;100.00;100132.88;3657837;81;25779;-72
2021/01/19 12:45:58;;;;;;;131.33;70.83;;;;;;;-7.32;100.00;100115.62;3657761;81;25847;-74
2021/01/19 12:50:59;;;;;;;120.30;66.17;;;;;;;-7.28;100.00;100114.89;3658122;81;25722;-69
2021/01/19 12:56:00;;;;;;;126.47;66.63;;;;;;;-7.44;100.00;100107.11;3658136;81;25837;-73
2021/01/19 13:01:02;;;;;;;128.10;68.27;;;;;;;-7.29;100.00;100105.75;3657964;81;25757;-73
2021/01/19 13:06:05;;;;;;;127.77;68.13;;;;;;;-7.29;100.00;100101.87;3657875;81;26212;-74
2021/01/19 13:11:08;;;;;;;134.90;67.90;;;;;;;-7.18;100.00;100103.06;3657588;81;32426;-73
2021/01/19 13:16:11;;;;;;;112.23;65.30;;;;;;;-7.18;100.00;100097.87;3657428;80;30694;-74
2021/01/19 13:21:14;;;;;;;124.70;67.17;;;;;;;-7.24;100.00;100095.98;3657965;81;32496;-73
2021/01/19 13:26:17;;;;;;;123.97;63.23;;;;;;;-7.21;100.00;100098.67;3658091;81;32508;-73
2021/01/19 13:31:23;;;;;;;124.10;66.77;;;;;;;-7.17;100.00;100094.85;3663438;81;32306;-73
2021/01/19 13:36:24;;;;;;;124.13;67.40;;;;;;;-7.08;100.00;100091.23;3659410;81;32524;-73
2021/01/19 13:41:26;;;;;;;114.80;64.20;;;;;;;-7.09;100.00;100092.95;3657500;81;25817;-73
2021/01/19 13:46:27;;;;;;;124.03;66.70;;;;;;;-7.05;100.00;100081.82;3657859;81;25813;-74
2021/01/19 13:51:28;;;;;;;127.50;68.60;;;;;;;-7.04;100.00;100080.09;3657664;81;26080;-74
2021/01/19 13:56:30;;;;;;;120.47;66.83;;;;;;;-7.03;100.00;100077.96;3634132;81;25927;-74
2021/01/19 14:01:33;;;;;;;126.70;67.43;;;;;;;-6.95;100.00;100066.09;3657644;81;32546;-73
2021/01/19 14:06:34;;;;;;;126.17;67.40;;;;;;;-6.95;100.00;100067.81;3657794;81;32445;-73
2021/01/19 14:11:35;;;;;;;121.63;67.00;;;;;;;-6.99;100.00;100070.75;3657813;81;26298;-72
2021/01/19 14:16:37;;;;;;;120.57;67.73;;;;;;;-6.90;100.00;100059.73;3657870;80;25759;-71
2021/01/19 14:21:40;;;;;;;118.10;65.50;;;;;;;-6.91;100.00;100053.66;3657767;81;32557;-70
2021/01/19 14:26:41;;;;;;;121.83;64.40;;;;;;;-6.91;100.00;100052.35;3657888;81;30682;-68
2021/01/19 14:31:46;;;;;;;116.10;64.83;;;;;;;-6.81;100.00;100051.30;3658260;81;25743;-73
2021/01/19 14:36:48;;;;;;;126.10;68.47;;;;;;;-6.86;100.00;100059.39;3657639;81;32478;-74
2021/01/19 14:41:50;;;;;;;122.97;67.57;;;;;;;-6.77;100.00;100048.83;3658455;81;31906;-72
2021/01/19 14:46:51;;;;;;;124.80;66.33;;;;;;;-6.85;100.00;100033.50;3658230;81;32493;-74
2021/01/19 14:51:52;;;;;;;127.33;70.40;;;;;;;-6.81;100.00;100039.23;3657952;81;25786;-75
2021/01/19 14:56:53;;;;;;;124.27;66.13;;;;;;;-6.86;100.00;100034.77;3604339;81;138038;-69
2021/01/19 15:01:55;;;;;;;129.07;68.53;;;;;;;-6.85;100.00;100028.75;3483090;85;25830;-74
2021/01/19 15:06:58;;;;;;;128.17;66.43;;;;;;;-6.85;100.00;100033.50;3483089;85;26266;-69
2021/01/19 15:12:09;;;;;;;123.77;68.37;;;;;;;-6.89;100.00;100027.36;3549075;83;113133;-69
2021/01/19 15:17:10;;;;;;;129.70;69.07;;;;;;;-6.83;100.00;100020.56;3568278;83;32413;-74
2021/01/19 15:22:11;;;;;;;119.67;68.53;;;;;;;-6.80;100.00;100012.88;3567749;83;25716;-68
2021/01/19 15:27:13;;;;;;;126.17;67.93;;;;;;;-6.74;100.00;100025.98;3567846;83;25867;-69
2021/01/19 15:32:14;;;;;;;120.80;68.87;;;;;;;-6.77;100.00;100016.86;3567848;83;25767;-73
2021/01/19 15:37:15;;;;;;;121.70;70.00;;;;;;;-6.71;100.00;100002.74;3556902;82;25691;-73
2021/01/19 15:42:16;;;;;;;125.40;68.07;;;;;;;-6.75;100.00;99997.91;3540726;83;26053;-74
2021/01/19 15:47:18;;;;;;;123.82;67.82;;;;;;;-6.67;100.00;99999.37;3540476;83;25766;-69
2021/01/19 15:52:19;;;;;;;109.17;57.95;;;;;;;-6.70;100.00;99998.02;3540997;83;25723;-73
2021/01/19 15:57:20;;;;;;;127.43;66.27;;;;;;;-6.68;100.00;99993.72;3540651;83;26182;-73
2021/01/19 16:02:21;;;;;;;132.60;69.57;;;;;;;-6.62;100.00;99980.89;3540700;83;25828;-75
2021/01/19 16:07:22;;;;;;;132.23;68.83;;;;;;;-6.60;100.00;99987.00;3540639;83;25947;-73
2021/01/19 16:12:24;;;;;;;123.70;67.80;;;;;;;-6.60;100.00;99980.52;3540463;83;25790;-73
2021/01/19 16:17:25;;;;;;;124.97;69.00;;;;;;;-6.55;100.00;99965.06;3542237;82;25787;-72
2021/01/19 16:22:26;;;;;;;124.97;64.80;;;;;;;-6.52;100.00;99965.15;3543243;82;25731;-73
2021/01/19 16:27:28;;;;;;;121.40;62.50;;;;;;;-6.52;100.00;99973.33;3527189;82;38600;-73
2021/01/19 16:32:29;;;;;;;116.67;63.70;;;;;;;-6.44;100.00;99967.90;3486453;83;25799;-72
2021/01/19 16:37:30;;;;;;;121.90;63.63;;;;;;;-6.48;100.00;99963.06;3481049;83;25977;-71
2021/01/19 16:42:31;;;;;;;120.93;64.97;;;;;;;-6.41;100.00;99964.06;3500526;83;25857;-70
2021/01/19 16:47:33;;;;;;;124.60;67.07;;;;;;;-6.36;100.00;99966.36;3500547;83;25870;-69
2021/01/19 16:52:36;;;;;;;125.33;64.33;;;;;;;-6.35;100.00;99951.25;3484927;83;25804;-73
2021/01/19 16:57:37;;;;;;;126.10;67.73;;;;;;;-6.30;100.00;99947.02;3494292;83;32584;-70
2021/01/19 17:02:38;;;;;;;130.90;67.70;;;;;;;-6.27;100.00;99936.70;3494847;83;26303;-71
2021/01/19 17:07:40;;;;;;;126.03;66.57;;;;;;;-6.23;100.00;99942.83;3486551;83;26220;-71
2021/01/19 17:12:41;;;;;;;129.73;67.07;;;;;;;-6.19;100.00;99930.79;3498887;83;25761;-73
2021/01/19 17:17:45;;;;;;;118.60;65.20;;;;;;;-6.16;100.00;99929.13;3489893;83;25903;-71
2021/01/19 17:22:48;;;;;;;120.20;65.23;;;;;;;-6.18;100.00;99923.06;3514839;81;49231;-72
2021/01/19 17:27:49;;;;;;;119.80;62.97;;;;;;;-6.13;100.00;99921.42;3537057;83;32680;-74
2021/01/19 17:32:50;;;;;;;117.03;63.20;;;;;;;-6.14;100.00;99914.91;3550129;82;36485;-73
2021/01/19 17:37:51;;;;;;;117.70;64.27;;;;;;;-6.09;100.00;99921.06;3571646;82;26062;-71
2021/01/19 17:42:53;;;;;;;120.37;63.43;;;;;;;-6.02;100.00;99907.77;3561744;82;25913;-73
2021/01/19 17:47:54;;;;;;;125.00;66.77;;;;;;;-5.90;100.00;99905.80;3550566;82;26211;-72
2021/01/19 17:52:55;;;;;;;123.93;66.23;;;;;;;-5.94;100.00;99913.55;3539262;82;25917;-74
2021/01/19 17:57:58;;;;;;;121.93;64.27;;;;;;;-5.89;100.00;99908.86;3566863;82;25797;-72
2021/01/19 18:03:01;;;;;;;117.60;64.50;;;;;;;-5.80;100.00;99891.72;3570820;82;32006;-73
2021/01/19 18:08:03;;;;;;;117.60;64.67;;;;;;;-5.76;100.00;99892.66;3572266;82;30806;-72
2021/01/19 18:13:04;;;;;;;119.40;63.10;;;;;;;-5.77;100.00;99886.59;3558011;82;30707;-69
2021/01/19 18:18:06;;;;;;;116.73;62.87;;;;;;;-5.69;100.00;99885.42;3564826;82;25868;-72
2021/01/19 18:23:07;;;;;;;112.80;60.40;;;;;;;-5.65;100.00;99878.16;3561911;82;32616;-73
2021/01/19 18:28:08;;;;;;;118.37;63.10;;;;;;;-5.55;100.00;99877.89;3586812;82;25800;-69
2021/01/19 18:33:12;;;;;;;115.67;62.73;;;;;;;-5.51;100.00;99881.41;3580123;82;25853;-68
2021/01/19 18:38:14;;;;;;;118.37;60.97;;;;;;;-5.48;100.00;99864.56;3541945;82;32579;-73
2021/01/19 18:43:15;;;;;;;118.53;63.17;;;;;;;-5.43;100.00;99862.94;3516779;83;32456;-68
2021/01/19 18:48:16;;;;;;;121.17;63.20;;;;;;;-5.37;100.00;99862.14;3529495;84;25780;-73
2021/01/19 18:53:20;;;;;;;112.87;61.67;;;;;;;-5.36;100.00;99871.28;3508531;83;26405;-73
2021/01/19 18:58:21;;;;;;;112.67;60.50;;;;;;;-5.30;100.00;99867.89;3510382;84;32521;-73
2021/01/19 19:03:23;;;;;;;112.20;60.30;;;;;;;-5.25;100.00;99869.27;3531273;84;25834;-73
2021/01/19 19:08:24;;;;;;;116.23;64.73;;;;;;;-5.25;100.00;99874.46;3517693;83;31387;-73
2021/01/19 19:13:25;;;;;;;111.93;62.30;;;;;;;-5.16;100.00;99875.91;3514979;84;25770;-72
2021/01/19 19:18:29;;;;;;;120.17;65.17;;;;;;;-5.12;100.00;99877.70;3514461;84;25972;-72
2021/01/19 19:23:30;;;;;;;116.33;62.37;;;;;;;-5.10;100.00;99878.61;3514074;83;32480;-73
2021/01/19 19:28:31;;;;;;;112.37;64.77;;;;;;;-5.07;100.00;99875.17;3514242;84;32908;-72
2021/01/19 19:33:33;;;;;;;109.93;61.47;;;;;;;-5.01;100.00;99870.06;3514250;84;25789;-73
2021/01/19 19:38:35;;;;;;;119.83;65.13;;;;;;;-5.06;100.00;99858.29;3539534;82;26496;-68
2021/01/19 19:43:36;;;;;;;119.13;63.13;;;;;;;-4.96;100.00;99852.39;3581674;82;33086;-72
2021/01/19 19:48:38;;;;;;;115.23;65.07;;;;;;;-4.96;100.00;99857.59;3559998;82;25902;-72
2021/01/19 19:53:39;;;;;;;115.30;63.80;;;;;;;-4.90;100.00;99849.42;3581970;82;25861;-71
2021/01/19 19:58:40;;;;;;;111.73;65.00;;;;;;;-4.83;100.00;99847.35;3584378;82;25862;-72
2021/01/19 20:03:42;;;;;;;120.63;66.03;;;;;;;-4.77;100.00;99840.06;3579262;82;25820;-71
2021/01/19 20:08:43;;;;;;;116.10;64.70;;;;;;;-4.77;100.00;99849.17;3581721;82;26005;-74
2021/01/19 20:13:45;;;;;;;112.43;61.97;;;;;;;-4.71;100.00;99847.51;3578057;82;33075;-73
2021/01/19 20:18:46;;;;;;;111.87;65.70;;;;;;;-4.61;100.00;99830.73;3581628;82;25796;-74
2021/01/19 20:23:47;;;;;;;115.00;64.00;;;;;;;-4.60;100.00;99837.69;3578792;82;25755;-73
2021/01/19 20:28:49;;;;;;;119.00;65.27;;;;;;;-4.53;100.00;99831.70;3581348;82;25853;-68
2021/01/19 20:33:52;;;;;;;108.50;64.03;;;;;;;-4.53;100.00;99827.80;3581797;82;25716;-68
2021/01/19 20:38:55;;;;;;;113.17;64.87;;;;;;;-4.45;100.00;99819.67;3578381;82;63813;-73
2021/01/19 20:43:56;;;;;;;116.40;66.53;;;;;;;-4.39;100.00;99808.02;3604089;82;30776;-74
2021/01/19 20:49:00;;;;;;;113.27;64.67;;;;;;;-4.31;100.00;99801.59;3602210;81;25856;-72
2021/01/19 20:54:01;;;;;;;112.50;66.63;;;;;;;-4.26;100.00;99796.00;3597794;82;33055;-72
2021/01/19 20:59:04;;;;;;;111.57;61.67;;;;;;;-4.17;100.00;99774.42;3595383;82;32503;-72
2021/01/19 21:04:07;;;;;;;105.87;64.37;;;;;;;-4.14;100.00;99770.53;3597355;82;32593;-72
2021/01/19 21:09:08;;;;;;;105.90;59.87;;;;;;;-4.09;100.00;99765.37;3597411;82;33253;-72
2021/01/19 21:14:10;;;;;;;116.10;64.93;;;;;;;-4.09;100.00;99761.05;3603385;82;26237;-73
2021/01/19 21:19:11;;;;;;;112.77;66.03;;;;;;;-4.02;100.00;99770.64;3597767;82;26230;-73
2021/01/19 21:24:13;;;;;;;113.63;66.57;;;;;;;-3.96;100.00;99769.83;3598868;82;25664;-67
2021/01/19 21:29:15;;;;;;;112.50;66.40;;;;;;;-3.92;100.00;99764.22;3598815;81;32406;-71
2021/01/19 21:34:17;;;;;;;115.60;67.03;;;;;;;-3.88;100.00;99767.31;3599249;82;32638;-67
2021/01/19 21:39:18;;;;;;;110.37;63.57;;;;;;;-3.84;100.00;99768.62;3588761;82;25859;-72
2021/01/19 21:44:19;;;;;;;114.73;67.37;;;;;;;-3.78;100.00;99769.56;3554358;83;25793;-75
2021/01/19 21:49:20;;;;;;;105.43;64.57;;;;;;;-3.75;100.00;99770.45;3554628;83;25830;-67
2021/01/19 21:54:22;;;;;;;106.20;63.60;;;;;;;-3.66;100.00;99758.38;3563189;82;26006;-71
2021/01/19 21:59:24;;;;;;;105.37;63.23;;;;;;;-3.60;100.00;99741.48;3586608;82;25878;-72
2021/01/19 22:04:26;;;;;;;110.10;63.27;;;;;;;-3.53;100.00;99738.05;3586519;82;32571;-72
2021/01/19 22:09:27;;;;;;;113.47;65.60;;;;;;;-3.49;100.00;99745.46;3589276;82;25781;-71
2021/01/19 22:14:28;;;;;;;100.57;60.33;;;;;;;-3.43;100.00;99745.05;3586126;82;25783;-71
2021/01/19 22:19:29;;;;;;;99.23;55.80;;;;;;;-3.47;100.00;99736.78;3585556;82;25827;-72
2021/01/19 22:24:30;;;;;;;96.10;56.53;;;;;;;-3.37;100.00;99731.20;3561021;82;25928;-72
2021/01/19 22:29:31;;;;;;;103.20;62.37;;;;;;;-3.34;100.00;99721.22;3565212;82;26421;-71
2021/01/19 22:34:32;;;;;;;98.70;59.37;;;;;;;-3.33;100.00;99717.30;3591433;82;25880;-68
2021/01/19 22:39:33;;;;;;;92.27;55.57;;;;;;;-3.21;100.00;99713.90;3592813;81;25842;-66